createdAt,value
2019-03-19T00:01:07.814Z,98101.70
2019-03-19T00:03:41.868Z,98101.67
2019-03-19T00:06:15.969Z,98104.95
2019-03-19T00:08:52.646Z,98110.84
2019-03-19T00:11:26.874Z,98110.11
2019-03-19T00:14:00.561Z,98112.92
2019-03-19T00:16:34.295Z,98114.17
2019-03-19T00:19:09.823Z,98117.34
2019-03-19T00:21:44.012Z,98118.84
2019-03-19T00:24:17.899Z,98105.54
2019-03-19T00:26:51.565Z,98108.92
2019-03-19T00:29:25.253Z,98109.89
2019-03-19T00:31:59.060Z,98102.86
2019-03-19T00:34:32.516Z,98105.05
2019-03-19T00:37:06.852Z,98108.38
2019-03-19T00:39:40.770Z,98111.09
2019-03-19T00:42:14.576Z,98127.54
2019-03-19T00:44:48.835Z,98127.65
2019-03-19T00:47:22.986Z,98125.11
2019-03-19T00:49:56.890Z,98114.05
2019-03-19T00:52:31.117Z,98116.21
2019-03-19T00:55:05.461Z,98119.19
2019-03-19T00:57:40.322Z,98109.78
2019-03-19T01:00:21.242Z,98106.09
2019-03-19T01:02:57.011Z,98103.22
2019-03-19T01:05:30.869Z,98108.44
2019-03-19T01:08:04.479Z,98099.16
2019-03-19T01:10:38.303Z,98101.75
2019-03-19T01:13:12.134Z,98098.53
2019-03-19T01:15:46.002Z,98099.42
2019-03-19T01:18:21.500Z,98100.08
2019-03-19T01:20:55.200Z,98101.59
2019-03-19T01:23:28.798Z,98097.81
2019-03-19T01:26:03.101Z,98094.44
2019-03-19T01:28:37.427Z,98078.58
2019-03-19T01:31:11.471Z,98083.24
2019-03-19T01:33:45.239Z,98073.45
2019-03-19T01:36:19.425Z,98079.22
2019-03-19T01:38:53.247Z,98075.63
2019-03-19T01:41:27.316Z,98069.99
2019-03-19T01:44:01.673Z,98059.42
2019-03-19T01:46:35.602Z,98060.12
2019-03-19T01:49:09.344Z,98060.17
2019-03-19T01:51:43.678Z,98051.05
2019-03-19T01:54:17.428Z,98060.05
2019-03-19T01:56:51.431Z,98043.47
2019-03-19T01:59:25.605Z,98053.06
2019-03-19T02:01:59.913Z,98051.37
2019-03-19T02:04:33.995Z,98046.42
2019-03-19T02:07:08.115Z,98045.67
2019-03-19T02:09:42.862Z,98040.86
2019-03-19T02:12:16.726Z,98041.23
2019-03-19T02:14:50.605Z,98038.86
2019-03-19T02:17:24.335Z,98023.56
2019-03-19T02:19:58.414Z,98021.53
2019-03-19T02:22:32.106Z,98023.44
2019-03-19T02:25:06.136Z,98021.95
2019-03-19T02:27:40.298Z,98016.03
2019-03-19T02:30:17.115Z,98008.04
2019-03-19T02:32:50.971Z,98014.00
2019-03-19T02:35:25.096Z,98006.98
2019-03-19T02:37:58.912Z,98001.22
2019-03-19T02:40:33.060Z,97995.27
2019-03-19T02:43:06.994Z,97993.20
2019-03-19T02:45:40.915Z,97986.27
2019-03-19T02:48:14.882Z,97987.14
2019-03-19T02:50:48.637Z,97995.84
2019-03-19T02:53:22.410Z,97991.05
2019-03-19T02:55:56.546Z,97985.66
2019-03-19T02:58:30.633Z,97988.54
2019-03-19T03:01:04.368Z,97985.09
2019-03-19T03:03:38.195Z,97980.73
2019-03-19T03:06:11.946Z,97972.11
2019-03-19T03:08:45.992Z,97965.50
2019-03-19T03:11:20.421Z,97971.80
2019-03-19T03:13:54.626Z,97973.63
2019-03-19T03:16:28.867Z,97969.06
2019-03-19T03:19:02.821Z,97968.08
2019-03-19T03:21:36.834Z,97959.01
2019-03-19T03:24:13.484Z,97962.39
2019-03-19T03:26:48.260Z,97954.08
2019-03-19T03:29:23.495Z,97945.92
2019-03-19T03:31:57.251Z,97943.59
2019-03-19T03:34:31.328Z,97938.53
2019-03-19T03:37:05.534Z,97938.36
2019-03-19T03:39:42.524Z,97923.17
2019-03-19T03:42:17.098Z,97923.92
2019-03-19T03:44:51.508Z,97914.93
2019-03-19T03:47:25.746Z,97915.20
2019-03-19T03:49:59.702Z,97911.89
2019-03-19T03:52:35.957Z,97921.18
2019-03-19T03:55:14.676Z,97917.78
2019-03-19T03:57:48.914Z,97909.34
2019-03-19T04:00:26.171Z,97905.17
2019-03-19T04:03:00.605Z,97900.63
2019-03-19T04:05:34.825Z,97893.59
2019-03-19T04:08:09.313Z,97887.70
2019-03-19T04:10:43.584Z,97890.81
2019-03-19T04:13:18.130Z,97875.11
2019-03-19T04:15:54.641Z,97875.14
2019-03-19T04:18:29.120Z,97871.62
2019-03-19T04:21:03.203Z,97868.95
2019-03-19T04:23:37.579Z,97860.66
2019-03-19T04:26:11.829Z,97859.92
2019-03-19T04:28:47.862Z,97849.59
2019-03-19T04:31:24.151Z,97845.44
2019-03-19T04:33:59.002Z,97846.50
2019-03-19T04:36:32.966Z,97844.53
2019-03-19T04:39:08.130Z,97842.64
2019-03-19T04:41:42.591Z,97841.34
2019-03-19T04:44:18.896Z,97820.64
2019-03-19T04:46:53.271Z,97838.16
2019-03-19T04:49:28.239Z,97818.60
2019-03-19T04:52:02.248Z,97810.76
2019-03-19T04:54:36.784Z,97808.81
2019-03-19T04:57:10.981Z,97797.03
2019-03-19T04:59:45.055Z,97794.52
2019-03-19T05:02:21.670Z,97795.16
2019-03-19T05:04:56.990Z,97791.45
2019-03-19T05:07:31.821Z,97776.97
2019-03-19T05:10:07.281Z,97765.20
2019-03-19T05:12:43.108Z,97765.66
2019-03-19T05:15:18.109Z,97756.20
2019-03-19T05:17:52.277Z,97755.45
2019-03-19T05:20:26.680Z,97753.51
2019-03-19T05:23:03.034Z,97757.31
2019-03-19T05:25:38.717Z,97751.72
2019-03-19T05:28:13.337Z,97734.84
2019-03-19T05:30:47.566Z,97729.95
2019-03-19T05:33:21.485Z,97727.48
2019-03-19T05:35:55.639Z,97725.83
2019-03-19T05:38:29.697Z,97724.03
2019-03-19T05:41:03.700Z,97725.83
2019-03-19T05:43:37.691Z,97718.16
2019-03-19T05:46:11.570Z,97718.10
2019-03-19T05:48:45.845Z,97712.13
2019-03-19T05:51:20.007Z,97706.96
2019-03-19T05:53:54.130Z,97692.37
2019-03-19T05:56:28.650Z,97696.55
2019-03-19T05:59:04.025Z,97697.30
2019-03-19T06:01:38.123Z,97696.78
2019-03-19T06:04:12.106Z,97697.69
2019-03-19T06:06:49.594Z,97690.84
2019-03-19T06:09:25.295Z,97692.56
2019-03-19T06:11:59.682Z,97696.25
2019-03-19T06:14:33.650Z,97682.73
2019-03-19T06:17:07.556Z,97677.38
2019-03-19T06:19:41.364Z,97683.94
2019-03-19T06:22:15.666Z,97675.02
2019-03-19T06:24:50.402Z,97662.14
2019-03-19T06:27:24.374Z,97674.82
2019-03-19T06:29:58.262Z,97678.05
2019-03-19T06:32:43.492Z,97661.41
2019-03-19T06:35:18.426Z,97662.41
2019-03-19T06:37:52.268Z,97660.05
2019-03-19T06:40:26.233Z,97656.59
2019-03-19T06:43:00.356Z,97663.05
2019-03-19T06:45:34.205Z,97658.49
2019-03-19T06:48:08.216Z,97656.53
2019-03-19T06:50:45.469Z,97656.71
2019-03-19T06:53:18.371Z,97638.67
2019-03-19T06:55:52.227Z,97662.08
2019-03-19T06:58:26.154Z,97651.94
2019-03-19T07:01:00.025Z,97649.94
2019-03-19T07:03:34.001Z,97649.58
2019-03-19T07:06:08.296Z,97642.59
2019-03-19T07:08:41.899Z,97654.53
2019-03-19T07:11:15.865Z,97651.73
2019-03-19T07:13:49.877Z,97641.05
2019-03-19T07:16:26.252Z,97645.80
2019-03-19T07:19:02.094Z,97638.46
2019-03-19T07:21:36.158Z,97638.84
2019-03-19T07:24:10.113Z,97630.34
2019-03-19T07:26:44.039Z,97626.78
2019-03-19T07:29:19.359Z,97626.77
2019-03-19T07:31:52.952Z,97641.62
2019-03-19T07:34:27.050Z,97633.06
2019-03-19T07:37:01.466Z,97642.98
2019-03-19T07:39:35.711Z,97639.80
2019-03-19T07:42:09.441Z,97628.68
2019-03-19T07:44:43.142Z,97625.33
2019-03-19T07:47:17.453Z,97632.47
2019-03-19T07:49:51.599Z,97624.94
2019-03-19T07:52:27.520Z,97625.73
2019-03-19T07:55:01.858Z,97621.35
2019-03-19T07:57:35.847Z,97624.46
2019-03-19T08:00:14.960Z,97619.59
2019-03-19T08:02:49.689Z,97611.65
2019-03-19T08:05:32.905Z,97616.39
2019-03-19T08:08:04.736Z,97617.53
2019-03-19T08:10:40.206Z,97620.28
2019-03-19T08:13:15.037Z,97607.37
2019-03-19T08:15:48.918Z,97613.09
2019-03-19T08:18:22.960Z,97609.93
2019-03-19T08:20:56.728Z,97611.70
2019-03-19T08:23:30.893Z,97616.07
2019-03-19T08:26:04.796Z,97610.88
2019-03-19T08:28:39.468Z,97616.42
2019-03-19T08:31:13.516Z,97606.45
2019-03-19T08:33:49.257Z,97615.32
2019-03-19T08:36:23.247Z,97620.75
2019-03-19T08:38:57.268Z,97625.36
2019-03-19T08:41:30.899Z,97620.95
2019-03-19T08:44:06.127Z,97624.28
2019-03-19T08:46:40.526Z,97624.44
2019-03-19T08:49:16.456Z,97617.30
2019-03-19T08:51:51.279Z,97629.73
2019-03-19T08:54:32.463Z,97621.46
2019-03-19T08:57:06.532Z,97620.23
2019-03-19T08:59:40.747Z,97628.33
2019-03-19T09:02:18.041Z,97623.92
2019-03-19T09:04:51.923Z,97632.87
2019-03-19T09:07:44.921Z,97619.56
2019-03-19T09:10:20.327Z,97631.81
2019-03-19T09:12:54.020Z,97629.94
2019-03-19T09:15:31.474Z,97631.84
2019-03-19T09:18:05.639Z,97637.19
2019-03-19T09:20:39.446Z,97645.22
2019-03-19T09:23:18.883Z,97638.72
2019-03-19T09:25:52.798Z,97647.77
2019-03-19T09:28:28.546Z,97647.55
2019-03-19T09:31:03.945Z,97660.35
2019-03-19T09:33:46.502Z,97664.83
2019-03-19T09:36:22.258Z,97665.18
2019-03-19T09:38:56.479Z,97666.63
2019-03-19T09:41:30.988Z,97675.91
2019-03-19T09:44:04.568Z,97671.31
2019-03-19T09:46:38.757Z,97685.68
2019-03-19T09:49:13.626Z,97679.70
2019-03-19T09:51:47.298Z,97683.34
2019-03-19T09:54:21.617Z,97692.19
2019-03-19T09:56:55.667Z,97680.33
2019-03-19T09:59:29.950Z,97685.84
2019-03-19T10:02:05.654Z,97687.16
2019-03-19T10:04:39.282Z,97698.94
2019-03-19T10:07:16.299Z,97701.48
2019-03-19T10:09:50.057Z,97706.77
2019-03-19T10:12:24.007Z,97691.37
2019-03-19T10:15:00.424Z,97689.19
2019-03-19T10:17:34.135Z,97712.23
2019-03-19T10:20:10.361Z,97712.56
2019-03-19T10:22:44.445Z,97718.45
2019-03-19T10:25:18.909Z,97721.37
2019-03-19T10:27:54.905Z,97726.38
2019-03-19T10:30:30.813Z,97726.58
2019-03-19T10:33:05.562Z,97738.41
2019-03-19T10:35:39.605Z,97746.55
2019-03-19T10:38:13.954Z,97736.66
2019-03-19T10:40:49.268Z,97743.13
2019-03-19T10:43:23.896Z,97739.09
2019-03-19T10:45:58.986Z,97747.66
2019-03-19T10:48:33.356Z,97728.63
2019-03-19T10:51:08.024Z,97736.21
2019-03-19T10:53:42.462Z,97738.14
2019-03-19T10:56:16.928Z,97752.85
2019-03-19T10:58:53.325Z,97746.89
2019-03-19T11:01:27.354Z,97749.02
2019-03-19T11:04:02.710Z,97741.42
2019-03-19T11:06:37.498Z,97755.11
2019-03-19T11:09:12.231Z,97747.59
2019-03-19T11:11:47.008Z,97745.94
2019-03-19T11:14:21.198Z,97741.98
2019-03-19T11:16:56.242Z,97744.80
2019-03-19T11:19:30.621Z,97747.14
2019-03-19T11:22:06.398Z,97742.03
2019-03-19T11:24:40.722Z,97741.28
2019-03-19T11:27:15.912Z,97749.03
2019-03-19T11:29:59.522Z,97747.69
2019-03-19T11:32:26.472Z,97743.55
2019-03-19T11:35:01.634Z,97755.56
2019-03-19T11:37:36.620Z,97751.75
2019-03-19T11:40:27.621Z,97751.34
2019-03-19T11:43:04.450Z,97740.38
2019-03-19T11:45:45.948Z,97761.22
2019-03-19T11:48:23.044Z,97762.02
2019-03-19T11:51:00.744Z,97768.34
2019-03-19T11:53:37.601Z,97757.44
2019-03-19T11:56:12.661Z,97767.84
2019-03-19T11:58:48.000Z,97779.24
2019-03-19T12:01:32.978Z,97769.69
2019-03-19T12:04:09.214Z,97772.00
2019-03-19T12:06:47.108Z,97772.11
2019-03-19T12:09:22.650Z,97780.80
2019-03-19T12:11:57.019Z,97784.59
2019-03-19T12:14:31.433Z,97777.91
2019-03-19T12:17:07.516Z,97792.42
2019-03-19T12:19:46.497Z,97798.87
2019-03-19T12:22:23.346Z,97789.52
2019-03-19T12:25:00.109Z,97790.89
2019-03-19T12:27:35.085Z,97797.92
2019-03-19T12:30:22.138Z,97797.50
2019-03-19T12:32:50.096Z,97797.41
2019-03-19T12:35:24.304Z,97809.76
2019-03-19T12:37:58.719Z,97819.41
2019-03-19T12:40:37.213Z,97812.07
2019-03-19T12:43:10.386Z,97823.62
2019-03-19T12:45:46.938Z,97829.95
2019-03-19T12:48:21.935Z,97811.27
2019-03-19T12:50:59.355Z,97811.11
2019-03-19T12:53:36.459Z,97827.65
2019-03-19T12:56:13.319Z,97812.26
2019-03-19T12:58:48.467Z,97815.43
2019-03-19T13:01:23.530Z,97824.34
2019-03-19T13:03:59.689Z,97816.94
2019-03-19T13:06:35.541Z,97815.33
2019-03-19T13:09:10.695Z,97805.90
2019-03-19T13:11:45.419Z,97807.12
2019-03-19T13:14:22.616Z,97828.92
2019-03-19T13:16:59.207Z,97814.34
2019-03-19T13:19:34.314Z,97807.53
2019-03-19T13:22:09.351Z,97822.44
2019-03-19T13:24:44.544Z,97809.70
2019-03-19T13:27:19.649Z,97817.55
2019-03-19T13:29:55.061Z,97840.02
2019-03-19T13:32:30.138Z,97821.91
2019-03-19T13:35:08.256Z,97826.75
2019-03-19T13:37:43.261Z,97830.81
2019-03-19T13:40:21.277Z,97840.45
2019-03-19T13:42:55.922Z,97831.63
2019-03-19T13:45:33.076Z,97832.19
2019-03-19T13:48:12.858Z,97840.80
2019-03-19T13:50:53.219Z,97827.95
2019-03-19T13:53:27.753Z,97859.19
2019-03-19T13:56:02.345Z,97833.03
2019-03-19T13:58:40.341Z,97820.03
2019-03-19T14:01:17.139Z,97836.75
2019-03-19T14:03:55.418Z,97836.06
2019-03-19T14:06:31.927Z,97838.28
2019-03-19T14:09:08.056Z,97841.88
2019-03-19T14:11:57.310Z,97856.58
2019-03-19T14:14:47.374Z,97845.30
2019-03-19T14:17:42.961Z,97862.70
2019-03-19T14:20:20.872Z,97864.88
2019-03-19T14:22:55.606Z,97846.26
2019-03-19T14:25:31.824Z,97861.97
2019-03-19T14:28:06.465Z,97862.32
2019-03-19T14:30:41.205Z,97853.98
2019-03-19T14:33:16.128Z,97863.16
2019-03-19T14:35:49.933Z,97860.87
2019-03-19T14:38:24.441Z,97865.94
2019-03-19T14:41:00.651Z,97874.58
2019-03-19T14:43:34.806Z,97856.48
2019-03-19T14:46:08.983Z,97864.05
2019-03-19T14:48:46.618Z,97855.50
2019-03-19T14:51:20.362Z,97886.39
2019-03-19T14:53:54.708Z,97905.66
2019-03-19T14:56:28.628Z,97930.80
2019-03-19T14:59:02.577Z,97931.03
2019-03-19T15:01:36.142Z,97934.49
2019-03-19T15:04:10.224Z,97918.30
2019-03-19T15:06:44.509Z,97944.02
2019-03-19T15:09:18.626Z,97944.16
2019-03-19T15:11:52.661Z,97928.33
2019-03-19T15:14:26.376Z,97933.37
2019-03-19T15:17:04.829Z,97930.16
2019-03-19T15:19:35.685Z,97939.23
2019-03-19T15:22:10.571Z,97939.23
2019-03-19T15:24:46.524Z,97933.74
2019-03-19T15:27:22.223Z,97949.92
2019-03-19T15:29:56.168Z,97936.29
2019-03-19T15:32:32.861Z,97940.77
2019-03-19T15:35:07.791Z,97939.38
2019-03-19T15:37:41.592Z,97937.20
2019-03-19T15:40:23.328Z,97940.19
2019-03-19T15:42:57.866Z,97936.64
2019-03-19T15:45:34.426Z,97946.70
2019-03-19T15:48:07.953Z,97946.27
2019-03-19T15:50:42.245Z,97953.11
2019-03-19T15:53:17.408Z,97952.20
2019-03-19T15:55:53.113Z,97935.84
2019-03-19T15:58:29.039Z,97951.30
2019-03-19T16:01:02.598Z,97958.73
2019-03-19T16:03:36.610Z,97960.55
2019-03-19T16:06:11.294Z,97965.56
2019-03-19T16:08:45.132Z,97958.36
2019-03-19T16:11:20.414Z,97957.68
2019-03-19T16:13:55.485Z,97963.52
2019-03-19T16:16:30.585Z,97963.38
2019-03-19T16:19:04.754Z,97966.48
2019-03-19T16:21:38.721Z,97969.56
2019-03-19T16:24:12.541Z,97987.52
2019-03-19T16:26:46.603Z,97975.05
2019-03-19T16:29:39.649Z,97973.19
2019-03-19T16:32:13.563Z,97992.17
2019-03-19T16:34:47.401Z,97990.13
2019-03-19T16:37:26.103Z,97987.24
2019-03-19T16:40:00.023Z,97989.87
2019-03-19T16:42:33.844Z,97993.17
2019-03-19T16:45:09.621Z,98004.47
2019-03-19T16:47:43.679Z,98006.19
2019-03-19T16:50:21.109Z,97991.00
2019-03-19T16:52:54.947Z,98009.73
2019-03-19T16:55:30.104Z,98026.52
2019-03-19T16:58:04.041Z,98030.07
2019-03-19T17:00:38.467Z,98033.53
2019-03-19T17:03:12.282Z,98038.78
2019-03-19T17:05:47.114Z,98043.23
2019-03-19T17:08:20.758Z,98059.61
2019-03-19T17:10:55.012Z,98057.73
2019-03-19T17:13:28.781Z,98054.30
2019-03-19T17:16:02.777Z,98054.84
2019-03-19T17:18:37.901Z,98053.47
2019-03-19T17:21:12.967Z,98060.27
2019-03-19T17:23:47.053Z,98050.39
2019-03-19T17:26:21.114Z,98056.12
2019-03-19T17:28:55.047Z,98057.25
2019-03-19T17:31:28.925Z,98068.06
2019-03-19T17:34:02.590Z,98059.84
2019-03-19T17:36:36.222Z,98060.73
2019-03-19T17:39:10.993Z,98062.19
2019-03-19T17:41:44.714Z,98072.80
2019-03-19T17:44:18.611Z,98073.89
2019-03-19T17:46:53.899Z,98065.01
2019-03-19T17:49:27.835Z,98071.67
2019-03-19T17:52:02.178Z,98080.74
2019-03-19T17:54:36.038Z,98072.52
2019-03-19T17:57:09.893Z,98078.20
2019-03-19T17:59:43.616Z,98082.44
2019-03-19T18:02:23.900Z,98085.78
2019-03-19T18:04:54.162Z,98092.39
2019-03-19T18:07:28.191Z,98092.72
2019-03-19T18:10:03.107Z,98104.12
2019-03-19T18:12:39.021Z,98088.80
2019-03-19T18:15:22.829Z,98084.28
2019-03-19T18:17:56.758Z,98089.72
2019-03-19T18:20:30.963Z,98083.56
2019-03-19T18:23:04.754Z,98084.66
2019-03-19T18:25:39.790Z,98086.78
2019-03-19T18:28:15.133Z,98097.59
2019-03-19T18:30:48.635Z,98103.50
2019-03-19T18:33:22.384Z,98097.66
2019-03-19T18:35:56.574Z,98106.69
2019-03-19T18:38:30.538Z,98102.33
2019-03-19T18:41:04.430Z,98123.83
2019-03-19T18:43:38.051Z,98122.50
2019-03-19T18:46:12.396Z,98122.66
2019-03-19T18:48:46.253Z,98118.30
2019-03-19T18:51:21.404Z,98115.98
2019-03-19T18:53:55.357Z,98104.46
2019-03-19T18:56:29.994Z,98112.30
2019-03-19T18:59:05.277Z,98129.23
2019-03-19T19:01:39.040Z,98136.23
2019-03-19T19:04:13.632Z,98127.20
2019-03-19T19:06:47.511Z,98114.39
2019-03-19T19:09:21.509Z,98119.55
2019-03-19T19:11:55.240Z,98127.20
2019-03-19T19:14:35.980Z,98125.92
2019-03-19T19:17:13.155Z,98117.15
2019-03-19T19:19:47.050Z,98123.99
2019-03-19T19:22:30.164Z,98132.28
2019-03-19T19:25:04.362Z,98127.99
2019-03-19T19:27:38.097Z,98122.13
2019-03-19T19:30:14.657Z,98133.02
2019-03-19T19:32:48.773Z,98124.70
2019-03-19T19:35:22.763Z,98124.45
2019-03-19T19:37:56.680Z,98121.81
2019-03-19T19:40:30.441Z,98123.50
2019-03-19T19:43:05.392Z,98122.38
2019-03-19T19:45:42.532Z,98127.27
2019-03-19T19:48:14.680Z,98127.27
2019-03-19T19:50:52.068Z,98138.53
2019-03-19T19:53:25.805Z,98137.64
2019-03-19T19:56:00.007Z,98135.63
2019-03-19T19:58:35.203Z,98144.27
2019-03-19T20:01:09.036Z,98139.78
2019-03-19T20:03:42.937Z,98141.25
2019-03-19T20:06:16.323Z,98142.86
2019-03-19T20:08:50.481Z,98145.52
2019-03-19T20:11:24.453Z,98152.38
2019-03-19T20:13:58.052Z,98155.18
2019-03-19T20:16:32.483Z,98156.74
2019-03-19T20:19:06.147Z,98162.66
2019-03-19T20:21:43.386Z,98159.06
2019-03-19T20:24:17.070Z,98163.06
2019-03-19T20:26:51.397Z,98163.31
2019-03-19T20:29:25.738Z,98172.91
2019-03-19T20:31:59.534Z,98166.59
2019-03-19T20:34:33.423Z,98182.16
2019-03-19T20:37:07.115Z,98180.70
2019-03-19T20:39:41.266Z,98191.82
2019-03-19T20:42:14.889Z,98196.09
2019-03-19T20:44:48.632Z,98201.77
2019-03-19T20:47:22.378Z,98208.29
2019-03-19T20:49:56.476Z,98210.95
2019-03-19T20:52:32.704Z,98216.06
2019-03-19T20:55:06.375Z,98215.16
2019-03-19T20:57:40.178Z,98215.13
2019-03-19T21:00:16.935Z,98221.95
2019-03-19T21:02:50.501Z,98217.34
2019-03-19T21:05:24.947Z,98214.84
2019-03-19T21:07:58.710Z,98212.54
2019-03-19T21:10:32.592Z,98215.80
2019-03-19T21:13:06.184Z,98219.61
2019-03-19T21:15:41.203Z,98221.42
2019-03-19T21:18:15.039Z,98226.16
2019-03-19T21:20:50.060Z,98215.52
2019-03-19T21:23:24.267Z,98219.03
2019-03-19T21:25:58.188Z,98215.99
2019-03-19T21:28:32.396Z,98216.38
2019-03-19T21:31:06.051Z,98214.86
2019-03-19T21:33:50.520Z,98209.14
2019-03-19T21:36:17.405Z,98205.70
2019-03-19T21:38:51.194Z,98209.09
2019-03-19T21:41:26.780Z,98226.57
2019-03-19T21:44:00.378Z,98232.92
2019-03-19T21:46:34.028Z,98239.83
2019-03-19T21:49:07.787Z,98239.56
2019-03-19T21:51:41.436Z,98239.70
2019-03-19T21:54:15.279Z,98252.84
2019-03-19T21:56:49.001Z,98241.98
2019-03-19T21:59:22.958Z,98252.29
2019-03-19T22:01:56.796Z,98242.46
2019-03-19T22:04:30.662Z,98253.91
2019-03-19T22:07:04.451Z,98247.83
2019-03-19T22:09:38.525Z,98263.95
2019-03-19T22:18:50.618Z,98267.42
2019-03-19T22:21:24.276Z,98284.00
2019-03-19T22:23:59.524Z,98281.30
2019-03-19T22:26:33.009Z,98286.68
2019-03-19T22:29:06.270Z,98294.98
2019-03-19T22:31:40.079Z,98293.31
2019-03-19T22:34:14.418Z,98302.20
2019-03-19T22:36:48.121Z,98306.45
2019-03-19T22:42:27.507Z,98296.39
2019-03-19T22:45:01.395Z,98286.91
2019-03-19T22:47:36.386Z,98286.10
2019-03-19T22:50:12.907Z,98287.25
2019-03-19T22:52:47.225Z,98292.63
2019-03-19T22:55:28.629Z,98299.37
2019-03-19T22:57:55.084Z,98299.37
2019-03-19T23:00:32.365Z,98298.92
2019-03-19T23:03:07.292Z,98305.95
2019-03-19T23:05:45.496Z,98304.36
2019-03-19T23:08:17.862Z,98315.08
2019-03-19T23:10:51.153Z,98330.30
2019-03-19T23:14:06.073Z,98331.13
2019-03-19T23:19:39.683Z,98339.52
2019-03-19T23:22:14.965Z,98334.93
2019-03-19T23:24:49.231Z,98338.13
2019-03-19T23:27:24.195Z,98333.27
2019-03-19T23:29:57.841Z,98336.52
2019-03-19T23:32:31.978Z,98347.37
2019-03-19T23:35:06.606Z,98352.51
2019-03-19T23:38:07.674Z,98354.97
2019-03-19T23:43:44.630Z,98347.63
2019-03-19T23:46:18.914Z,98361.72
2019-03-19T23:48:53.181Z,98346.30
2019-03-19T23:51:26.927Z,98356.30
2019-03-19T23:54:02.069Z,98354.41
2019-03-19T23:56:37.184Z,98357.65
2019-03-19T23:59:11.237Z,98356.01
